CW7865 Weather Reports


Display with metric or nautical units.
time (UTC)temp
F
wind
direction
speed
MPH
gust
MPH
rain 1hr
in
rain 24hr
in
rain mn
in
humidity
%
barometer
mb
20191022095320 53 240 0.0 0.0 0.00 0.20 0.00 64 1003.9
20191022094328 52 242 0.0 0.0 0.00 0.20 0.00 65 1003.9
20191022093318 52 243 0.0 0.0 0.00 0.20 0.00 66 1003.8
20191022092324 52 238 0.0 0.0 0.00 0.20 0.00 66 1003.8
20191022091329 52 239 0.0 0.0 0.00 0.20 0.00 66 1003.8
20191022090318 52 241 0.0 0.0 0.00 0.20 0.00 67 1003.7
20191022085327 52 239 0.0 0.0 0.00 0.20 0.00 67 1003.6
20191022084317 52 239 0.0 0.0 0.00 0.20 0.00 68 1003.6
20191022083322 51 241 0.0 0.0 0.00 0.20 0.00 68 1003.5
20191022082327 51 241 0.0 0.0 0.00 0.20 0.00 68 1003.5
20191022081317 52 237 0.0 0.0 0.00 0.20 0.00 66 1003.6
20191022080322 52 240 0.0 0.0 0.00 0.20 0.00 66 1003.6
20191022075331 52 231 0.0 0.0 0.00 0.20 0.00 66 1003.7
20191022074316 52 227 0.0 0.0 0.00 0.20 0.00 65 1003.8
20191022073329 52 225 0.0 0.0 0.00 0.20 0.00 65 1003.7
20191022072335 52 224 0.0 0.0 0.00 0.20 0.00 66 1003.7
20191022071321 52 230 0.0 0.0 0.00 0.20 0.00 65 1003.6
20191022070324 53 223 0.0 0.0 0.00 0.20 0.00 64 1003.5
20191022065317 53 220 0.0 0.0 0.00 0.20 0.00 64 1003.5
20191022064325 53 241 0.0 0.0 0.00 0.20 0.00 64 1003.5
20191022063331 52 225 0.0 0.0 0.00 0.20 0.00 65 1003.5
20191022062317 52 223 0.0 0.0 0.00 0.20 0.00 66 1003.6
20191022061327 52 235 0.0 0.0 0.00 0.20 0.00 66 1003.6
20191022060330 52 232 0.0 0.0 0.00 0.20 0.00 65 1003.6
20191022055316 52 228 0.0 0.0 0.00 0.20 0.00 66 1003.6
20191022054325 52 230 0.0 0.0 0.00 0.20 0.00 65 1003.7
20191022053335 52 223 0.0 0.0 0.00 0.20 0.00 65 1003.6
20191022052320 52 360 0.0 0.0 0.00 0.20 0.00 65 1003.5
20191022051326 52 223 0.0 0.0 0.00 0.20 0.00 65 1003.4
20191022050317 52 223 0.0 0.0 0.00 0.20 0.00 64 1003.4
20191022045323 52 223 0.0 0.0 0.00 0.20 0.00 64 1003.4
20191022044328 52 223 0.0 0.0 0.00 0.20 0.00 63 1003.5
20191022043334 53 223 0.0 0.0 0.00 0.20 0.00 63 1003.5
20191022042323 53 223 0.0 0.0 0.00 0.20 0.00 62 1003.5
20191022041328 53 223 0.0 0.0 0.00 0.20 0.00 63 1003.5
20191022040317 53 223 0.0 0.0 0.00 0.20 0.00 62 1003.5
20191022035323 53 220 0.0 0.0 0.00 0.20 0.00 62 1003.5
20191022034331 53 220 0.0 0.0 0.00 0.20 0.00 62 1003.5
20191022033317 53 220 0.0 0.0 0.00 0.20 0.00 62 1003.5
20191022032326 54 220 0.0 0.0 0.00 0.20 0.00 61 1003.5
20191022031331 54 220 0.0 0.0 0.00 0.20 0.00 61 1003.4
20191022030320 54 220 0.0 0.0 0.00 0.20 0.00 61 1003.6
20191022025326 54 220 0.0 0.0 0.00 0.20 0.00 60 1003.6
20191022024332 54 222 0.0 0.0 0.00 0.20 0.00 60 1003.6
20191022023320 55 360 0.0 0.0 0.00 0.20 0.00 59 1003.7
20191022022329 55 360 0.0 0.0 0.00 0.20 0.00 61 1003.7
20191022021335 55 360 0.0 0.0 0.00 0.20 0.00 60 1003.6
20191022020319 55 360 0.0 0.0 0.00 0.20 0.00 59 1003.6
20191022015325 55 360 0.0 0.0 0.00 0.20 0.00 58 1003.6
20191022014315 55 360 0.0 0.0 0.00 0.20 0.00 57 1003.6
20191022013324 55 360 0.0 0.0 0.00 0.20 0.00 59 1003.6
20191022012329 55 360 0.0 0.0 0.00 0.20 0.00 59 1003.6
20191022011315 55 360 0.0 0.0 0.00 0.20 0.00 59 1003.6
20191022010325 55 221 0.0 0.0 0.00 0.20 0.00 59 1003.6
20191022005334 55 221 0.0 0.0 0.00 0.20 0.00 60 1003.6
20191022004320 55 220 0.0 0.0 0.00 0.20 0.00 58 1003.6
20191022003326 56 360 0.0 0.0 0.00 0.20 0.00 56 1003.6
20191022002315 56 223 0.0 0.0 0.00 0.20 0.00 55 1003.6
20191022001321 56 225 0.0 0.0 0.00 0.20 0.00 55 1003.5
20191022000324 57 212 0.0 0.0 0.00 0.20 0.00 51 1003.4
20191021235315 57 360 0.0 0.0 0.00 0.20 0.00 52 1003.3
20191021234323 57 360 0.0 0.0 0.00 0.20 0.00 52 1003.2
20191021233332 57 223 0.0 0.0 0.00 0.20 0.00 53 1003.2
20191021232318 58 243 0.0 0.0 0.00 0.20 0.00 53 1003.2
20191021231331 58 240 0.0 0.0 0.00 0.20 0.00 54 1003.1
20191021230316 58 238 0.0 0.0 0.00 0.20 0.00 54 1003.0
20191021225322 59 243 0.0 0.0 0.00 0.20 0.00 54 1002.7
20191021224327 59 252 0.0 0.0 0.00 0.20 0.00 54 1002.6
20191021223317 59 246 0.0 0.0 0.00 0.20 0.00 54 1002.2
20191021222322 60 243 0.0 0.0 0.00 0.20 0.00 53 1001.9
20191021221327 60 234 0.0 0.0 0.00 0.20 0.00 54 1001.7
20191021220331 61 250 0.0 0.0 0.00 0.20 0.00 51 1001.4
20191021215321 61 360 0.0 2.0 0.00 0.20 0.00 50 1001.1
20191021194314 66 205 0.0 1.0 0.00 0.20 0.00 41 999.2
20191021193322 66 216 0.0 0.0 0.00 0.20 0.00 41 999.2
20191021192328 66 220 0.0 1.0 0.00 0.20 0.00 43 999.2
20191021191334 66 233 0.0 0.0 0.00 0.20 0.00 43 999.1
20191021190322 65 214 0.0 0.0 0.00 0.20 0.00 45 999.0
20191021185327 66 219 0.0 0.0 0.00 0.20 0.00 46 999.0
20191021184333 66 219 0.0 1.0 0.00 0.20 0.00 44 998.9
20191021183319 65 217 0.0 1.0 0.00 0.20 0.00 47 999.0
20191021182328 65 221 0.0 0.0 0.00 0.20 0.00 46 999.0
20191021181334 66 220 0.0 0.0 0.00 0.20 0.00 54 999.0
20191021180319 66 236 0.0 0.0 0.00 0.20 0.00 63 998.8
20191021175324 67 243 0.0 0.0 0.00 0.20 0.00 64 998.7
20191021174314 67 225 0.0 0.0 0.00 0.20 0.00 61 998.6
20191021173323 66 234 0.0 0.0 0.00 0.20 0.00 70 998.5
20191021172329 65 238 0.0 0.0 0.00 0.20 0.00 73 998.4
20191021171334 66 234 0.0 0.0 0.00 0.20 0.00 75 998.3
20191021170322 65 227 0.0 0.0 0.00 0.20 0.00 78 997.9
20191021165328 66 221 0.0 0.0 0.00 0.20 0.00 77 997.8
20191021164314 66 212 0.0 0.0 0.00 0.20 0.00 80 998.0
20191021163322 64 214 0.0 0.0 0.00 0.20 0.00 82 998.0
20191021162332 64 215 0.0 0.0 0.00 0.20 0.00 84 997.8
20191021161319 64 215 0.0 0.0 0.00 0.20 0.00 84 997.7
20191021160326 64 216 0.0 0.0 0.00 0.20 0.00 84 997.6
20191021155333 64 202 0.0 0.0 0.00 0.20 0.00 84 997.5
20191021154323 64 213 0.0 0.0 0.00 0.20 0.20 84 997.5
20191021153328 64 211 0.0 0.0 0.00 0.20 0.20 85 997.4
20191021152314 64 214 0.0 0.0 0.00 0.20 0.20 85 997.4
20191021151322 64 213 0.0 0.0 0.00 0.20 0.20 86 997.4
20191021150333 64 206 0.0 0.0 0.00 0.20 0.20 86 997.1
20191021145318 63 177 0.0 0.0 0.00 0.20 0.20 87 997.4
20191021144324 63 195 0.0 0.0 0.00 0.20 0.20 87 997.0
20191021143329 63 167 0.0 0.0 0.00 0.20 0.20 87 997.3
20191021142319 63 185 0.0 0.0 0.00 0.20 0.20 87 997.3
20191021141324 63 175 0.0 0.0 0.00 0.20 0.20 87 997.2
20191021140327 63 181 0.0 5.0 0.00 0.20 0.20 87 997.1
20191021135320 63 159 0.0 1.0 0.00 0.20 0.20 88 997.0
20191021134325 62 171 1.0 10.0 0.00 0.20 0.20 88 997.0
20191021133334 62 159 0.0 1.0 0.00 0.20 0.20 88 997.0
20191021132320 62 148 0.0 0.0 0.00 0.20 0.20 88 997.0
20191021131330 62 166 0.0 6.0 0.00 0.20 0.20 88 997.2
20191021130334 61 150 1.0 5.0 0.00 0.20 0.20 88 996.9
20191021125320 61 144 0.0 0.0 0.01 0.20 0.20 88 996.8
20191021124325 60 145 0.0 0.0 0.03 0.20 0.20 87 996.9
20191021123317 60 141 0.0 0.0 0.08 0.20 0.20 87 996.9
20191021122325 60 132 0.0 0.0 0.11 0.20 0.20 87 997.5
20191021121330 60 99 0.0 0.0 0.13 0.20 0.20 86 997.6
20191021120315 60 107 0.0 0.0 0.17 0.20 0.20 86 997.7
20191021115325 60 105 0.0 0.0 0.18 0.19 0.19 85 997.7
20191021114331 60 157 0.0 0.0 0.17 0.17 0.17 85 1000.4
20191021113316 60 154 0.0 0.0 0.12 0.12 0.12 84 1000.2
20191021112322 60 151 0.0 0.0 0.09 0.09 0.09 83 1000.2
20191021111331 60 112 0.0 0.0 0.07 0.07 0.07 81 1000.4
20191021110316 61 360 0.0 0.0 0.03 0.03 0.03 79 1000.3
20191021105326 61 360 0.0 0.0 0.01 0.01 0.01 78 1000.6
20191021104329 62 148 0.0 0.0 0.00 0.00 0.00 74 1000.6
20191021103322 62 148 0.0 0.0 0.00 0.00 0.00 72 1000.7
20191021102328 62 144 0.0 0.0 0.00 0.00 0.00 72 1000.8
20191021101333 62 360 0.0 0.0 0.00 0.00 0.00 72 1001.4
20191021100318 62 110 0.0 1.0 0.00 0.00 0.00 72 1001.5